Dubuque Regional Airport
KDBQ : rendu visible

Aérodrome :











RETROUVEZ-NOUS SUR...

 
LOGIN :

S'inscrire | Disclaimer

   EN    FR    IT 

 









Légende :    VFR   VFR Marginal   IFR   IFR Intensif   IFR Très Intensif
Visi : 
Plafond : 
>= 8 km
>= 3000ft
5 à 8 km
1000 à 3000 ft
1500m à 5 km
500 à 1000 ft
800 à 1500m
200 à 500 ft
< 800m
< 200 ft
Symboles :   Orages  Brouillard  Fortes neiges  Fortes précipitations  Vent > 20 kt






- Altitude de l'aérodrome : 1077 ft
- Code IATA : DBQ


KDBQ - Dubuque Regional

DERNIER METAR :
  • 290909Z AUTO 22023G33KT 4SM -RA BR FEW008 BKN014 OVC021 06/04 A2931 RMK AO2 PK WND 23035/0855 RAB0856 P0000 T00560044

METARs EXPIRÉS :
  • 290853Z AUTO 23024G33KT 9SM SCT013 BKN020 OVC025 06/04 A2931 RMK AO2 PK WND 23036/0838 SLP927 T00610044 56019
  • 290819Z AUTO 22020G35KT 10SM BKN027 OVC031 07/03 A2930 RMK AO2 PK WND 21035/0809 T00720033
  • 290753Z AUTO 22020G34KT 10SM SCT025 SCT032 OVC041 08/04 A2932 RMK AO2 PK WND 23034/0744 SLP930 T00780044
  • 290653Z AUTO 21014KT 10SM BKN039 OVC047 10/06 A2934 RMK AO2 SLP939 T01000056

TAF KDBQ
Valide du 29 à 09h jusqu'au 30 à 06h UTC


290905Z 2909/3006 25024G35KT P6SM OVC015
FM291500 27023G38KT P6SM OVC020
FM292300 29018G25KT P6SM OVC030
FM300200 30013KT P6SM BKN050



MET'MAP, la Météo Aéronautique d'un coup d'oeil ! - Copyright ORBIFLY Décembre 2007 - Disclaimer

ORBIFLY MET'MAP TEAM :

Programmation & Développement : Alexandra Zaïnal
Sur une idée originale de : Baudouin d'Aumeries
Assistance à la programmation : Marc-Olivier Méhu
Soutien technique & logistique : Manuel Goepfert

Contact : metmap@orbifly.com




SOURCES & CREDITS :

   NOAA       Earth
Advisory